Terminal Aerodrome Forecast
Issued by NWS South Bend, IN

Home | Current Version | Previous Version | Text Only | Print | Product List | Glossary On
Versions: 1 2 3 4 5 6 7 8 9 10 11 12 13 14 15 16 17 18 19
000
FTUS43 KIWX 022300
TAFSBN
TAF
KSBN 022335Z 0300/0324 30006KT P6SM FEW250
     FM030100 VRB03KT P6SM FEW200
     FM030300 19006KT P6SM SCT200
     FM031400 21013G19KT P6SM SCT100=

USA.gov is the U.S. government's official web portal to all federal, state and local government web resources and services.